Time;durP1;ratioP1;P1;durP2;ratioP2;P2;SDS_P1;SDS_P2;PMS_P1;PMS_P2;Temp;Humidity;BMP_temperature;BMP_pressure;BME280_temperature;BME280_humidity;BME280_pressure;Samples;Min_cycle;Max_cycle;Signal;HPM_P1;HPM_P2
2022/08/04 00:00:10;;;;;;;2.47;1.48;;;23.10;54.80;;;22.60;59.24;95944.66;4941922;28;20047;-67
2022/08/04 00:03:13;;;;;;;1.77;1.40;;;23.10;54.90;;;22.49;59.36;95935.03;4946496;28;20830;-67
2022/08/04 00:06:00;;;;;;;3.15;1.65;;;23.00;55.00;;;22.41;59.75;95938.25;4926984;28;20039;-67
2022/08/04 00:08:51;;;;;;;4.15;1.63;;;22.90;55.20;;;22.35;59.94;95941.97;4947284;28;20586;-68
2022/08/04 00:11:22;;;;;;;2.47;1.50;;;22.80;55.60;;;22.30;59.91;95936.63;4928145;28;20046;-68
2022/08/04 00:13:56;;;;;;;2.58;1.45;;;22.80;56.00;;;22.23;60.19;95942.25;4943567;28;20559;-67
2022/08/04 00:16:23;;;;;;;2.00;1.40;;;22.70;56.30;;;22.17;59.59;95942.47;4928088;28;20530;-67
2022/08/04 00:18:58;;;;;;;5.07;1.80;;;22.70;56.60;;;22.15;61.14;95944.63;4912353;28;20043;-67
2022/08/04 00:21:24;;;;;;;2.95;1.42;;;22.60;56.70;;;22.09;60.69;95946.50;4943496;28;20031;-67
2022/08/04 00:23:50;;;;;;;3.03;1.50;;;22.70;57.00;;;22.05;60.84;95939.25;4913599;28;20040;-67
2022/08/04 00:26:17;;;;;;;3.45;1.80;;;22.60;57.20;;;22.02;61.53;95946.72;4941685;28;20537;-67
2022/08/04 00:28:43;;;;;;;3.35;1.60;;;22.60;57.30;;;22.00;60.97;95948.06;4929406;28;20038;-68
2022/08/04 00:31:12;;;;;;;4.07;1.60;;;22.60;57.10;;;21.97;61.97;95945.91;4945044;28;20504;-67
2022/08/04 00:33:38;;;;;;;2.35;1.70;;;22.60;57.30;;;21.92;61.85;95941.34;4960813;28;20046;-67
2022/08/04 00:36:04;;;;;;;4.50;1.50;;;22.60;57.30;;;21.89;61.26;95941.88;4928295;28;20514;-68
2022/08/04 00:38:30;;;;;;;4.13;1.48;;;22.50;57.30;;;21.85;61.63;95935.44;4948596;28;20542;-67
2022/08/04 00:41:04;;;;;;;2.42;1.45;;;22.40;57.50;;;21.81;62.92;95945.06;4931034;28;20148;-67
2022/08/04 00:43:58;;;;;;;2.13;1.63;;;22.30;57.70;;;21.78;63.33;95940.25;4965835;28;20075;-67
2022/08/04 00:46:34;;;;;;;2.45;1.40;;;22.30;58.10;;;21.76;63.74;95946.94;4956341;28;20130;-67
2022/08/04 00:49:38;;;;;;;3.03;1.80;;;22.30;58.30;;;21.72;63.51;95941.28;4947509;28;20046;-67
2022/08/04 00:52:49;;;;;;;1.75;1.33;;;22.30;58.20;;;21.68;63.56;95938.31;4939213;28;20035;-67
2022/08/04 00:56:03;;;;;;;4.00;1.67;;;22.30;58.00;;;21.62;63.38;95941.25;4948843;28;20122;-67
2022/08/04 00:58:53;;;;;;;2.65;1.85;;;22.20;58.00;;;21.54;63.73;95936.41;4945726;28;20069;-67
2022/08/04 01:01:44;;;;;;;2.75;1.60;;;22.20;58.00;;;21.50;64.23;95940.66;4946921;28;20054;-68
2022/08/04 01:04:23;;;;;;;4.45;1.80;;;22.10;58.30;;;21.46;62.70;95942.25;4946455;28;20047;-67
2022/08/04 01:07:21;;;;;;;2.40;1.80;;;22.00;58.20;;;21.43;64.05;95943.56;4933342;28;20042;-68
2022/08/04 01:10:24;;;;;;;3.47;1.63;;;22.00;58.40;;;21.37;64.29;95940.09;4946643;28;20046;-68
2022/08/04 01:13:33;;;;;;;2.22;1.65;;;22.00;58.50;;;21.33;64.13;95944.34;4943910;28;20042;-67
2022/08/04 01:16:04;;;;;;;2.65;1.67;;;22.00;58.40;;;21.27;63.30;95939.22;4946561;28;20779;-68
2022/08/04 01:18:38;;;;;;;;;;;21.90;58.50;;;21.21;64.37;95943.72;4947738;28;20062;-67
2022/08/04 01:21:28;;;;;;;4.30;2.00;;;21.80;58.70;;;21.18;64.52;95946.09;4943956;28;19923;-68
2022/08/04 01:24:12;;;;;;;2.42;1.92;;;21.80;58.80;;;21.15;64.13;95942.06;4945480;28;20038;-67
2022/08/04 01:26:46;;;;;;;3.08;1.67;;;21.80;58.90;;;21.12;64.15;95939.13;4944643;28;20035;-66
2022/08/04 01:29:13;;;;;;;3.50;1.70;;;21.70;59.10;;;21.09;63.60;95941.25;4931617;28;20410;-67
2022/08/04 01:32:01;;;;;;;3.88;1.75;;;21.80;59.20;;;21.10;65.38;95944.72;4913390;28;20105;-67
2022/08/04 01:34:36;;;;;;;4.53;1.65;;;21.70;59.40;;;21.08;65.32;95936.16;4944035;28;20426;-68
2022/08/04 01:37:29;;;;;;;2.72;1.70;;;21.70;59.50;;;21.06;65.31;95938.28;4944392;28;20035;-67
2022/08/04 01:40:03;;;;;;;1.80;1.60;;;21.70;59.60;;;21.02;65.94;95937.97;4957134;28;20039;-67
2022/08/04 01:42:32;;;;;;;3.70;1.63;;;21.70;59.80;;;20.99;65.51;95946.53;4945147;28;20043;-67
2022/08/04 01:45:05;;;;;;;2.42;1.70;;;21.60;59.90;;;20.95;66.21;95947.31;4933207;28;20491;-68
2022/08/04 01:47:33;;;;;;;4.13;1.67;;;21.60;60.00;;;20.95;65.87;95939.28;4944967;28;20059;-67
2022/08/04 01:50:11;;;;;;;3.05;1.80;;;21.60;60.20;;;20.93;66.88;95944.09;4946244;28;20039;-67
2022/08/04 01:52:38;;;;;;;2.65;1.75;;;21.60;60.30;;;20.86;65.93;95943.50;4918597;28;20027;-67
2022/08/04 01:55:08;;;;;;;4.25;1.55;;;21.50;60.50;;;20.84;66.13;95940.28;4946085;28;20146;-67
2022/08/04 01:58:04;;;;;;;2.33;1.83;;;21.50;60.60;;;20.82;67.77;95937.88;4929556;28;20024;-67
2022/08/04 02:00:29;;;;;;;6.13;2.08;;;21.50;60.40;;;20.78;66.00;95937.56;4944108;28;20073;-67
2022/08/04 02:02:55;;;;;;;2.83;1.60;;;21.50;60.50;;;20.75;65.65;95938.09;4929888;28;20043;-67
2022/08/04 02:05:23;;;;;;;3.00;1.63;;;21.40;60.70;;;20.74;66.69;95939.16;4947179;28;20522;-68
2022/08/04 02:08:21;;;;;;;3.33;1.80;;;21.40;60.80;;;20.71;67.25;95934.31;4929674;28;20292;-67
2022/08/04 02:11:13;;;;;;;3.60;1.63;;;21.30;61.10;;;20.68;67.86;95939.38;4942261;28;20035;-68
2022/08/04 02:14:39;;;;;;;2.60;1.70;;;21.20;61.20;;;20.64;67.88;95931.06;4934134;28;20495;-67
2022/08/04 02:17:08;;;;;;;2.70;1.80;;;21.30;61.40;;;20.61;67.32;95933.44;4939060;28;20090;-68
2022/08/04 02:20:04;;;;;;;4.00;1.98;;;21.30;61.80;;;20.61;69.47;95930.78;4943910;28;20055;-68
2022/08/04 02:22:30;;;;;;;36.33;27.80;;;21.30;61.70;;;20.56;67.52;95933.38;4942068;28;20043;-67
2022/08/04 02:25:04;;;;;;;25.13;19.33;;;21.30;61.70;;;20.54;68.62;95936.31;4946097;28;20038;-67
2022/08/04 02:27:45;;;;;;;18.55;15.43;;;21.20;61.50;;;20.52;68.31;95932.28;4914023;28;20039;-67
2022/08/04 02:30:11;;;;;;;4.75;3.00;;;21.20;61.90;;;20.49;68.07;95938.94;4931023;28;20126;-67
2022/08/04 02:32:40;;;;;;;3.67;2.20;;;21.20;61.80;;;20.48;68.44;95937.34;4927745;28;20028;-67
2022/08/04 02:35:20;;;;;;;6.80;4.65;;;21.10;62.00;;;20.45;70.09;95932.50;4944520;28;20035;-67
2022/08/04 02:38:03;;;;;;;20.30;17.90;;;21.20;61.90;;;20.43;69.88;95931.97;4930206;28;20118;-67
2022/08/04 02:40:29;;;;;;;10.93;8.27;;;21.10;61.90;;;20.40;68.05;95929.78;4946560;28;20051;-68
2022/08/04 02:42:56;;;;;;;9.23;3.60;;;21.10;61.90;;;20.39;68.76;95922.81;4910929;28;20047;-67
2022/08/04 02:45:21;;;;;;;24.30;19.65;;;21.10;62.10;;;20.38;69.30;95922.03;4931414;28;20474;-67
2022/08/04 02:47:47;;;;;;;17.20;14.82;;;21.10;62.30;;;20.37;69.06;95919.59;4913105;28;20035;-68
2022/08/04 02:50:13;;;;;;;7.07;4.68;;;21.10;62.20;;;20.34;68.29;95917.41;4947594;28;20146;-67
2022/08/04 02:52:40;;;;;;;5.97;2.80;;;21.10;61.40;;;20.33;68.09;95915.81;4930333;28;20039;-67
2022/08/04 02:55:06;;;;;;;10.65;6.63;;;21.10;61.40;;;20.30;68.19;95911.78;4927653;28;20520;-67
2022/08/04 02:57:31;;;;;;;5.05;4.03;;;21.10;61.60;;;20.30;68.63;95914.44;4944201;28;20507;-67
2022/08/04 03:00:13;;;;;;;7.22;3.88;;;21.00;61.50;;;20.28;69.61;95908.56;4929814;28;20042;-67
2022/08/04 03:02:58;;;;;;;5.30;4.10;;;21.00;61.60;;;20.23;68.90;95907.72;4930391;28;20031;-67
2022/08/04 03:05:54;;;;;;;4.80;3.30;;;20.90;61.60;;;20.20;69.39;95909.03;4944914;28;20126;-68
2022/08/04 03:09:09;;;;;;;7.13;3.60;;;20.90;61.70;;;20.15;68.92;95909.81;4946111;28;20059;-67
2022/08/04 03:12:05;;;;;;;3.70;2.50;;;20.90;61.90;;;20.13;69.09;95913.75;4942240;28;20043;-67
2022/08/04 03:14:57;;;;;;;9.38;4.20;;;20.80;61.90;;;20.07;69.63;95918.25;4928205;28;20028;-67
2022/08/04 03:17:57;;;;;;;6.70;4.28;;;20.70;62.10;;;20.02;69.70;95918.22;4945650;28;20039;-69
2022/08/04 03:21:08;;;;;;;5.55;3.10;;;20.80;62.00;;;19.97;69.29;95915.50;4945544;28;20082;-66
2022/08/04 03:23:44;;;;;;;5.45;2.30;;;20.60;62.10;;;19.90;69.51;95925.56;4945714;28;20043;-66
2022/08/04 03:26:43;;;;;;;5.65;2.63;;;20.60;62.20;;;19.87;69.64;95926.88;4959722;28;20066;-67
2022/08/04 03:29:42;;;;;;;4.53;2.35;;;20.60;62.20;;;19.83;69.42;95923.09;4928923;28;20122;-66
2022/08/04 03:32:20;;;;;;;2.55;2.15;;;20.60;62.20;;;19.79;69.54;95929.19;4945438;28;20039;-66
2022/08/04 03:35:12;;;;;;;3.60;2.20;;;20.50;62.60;;;19.77;70.63;95936.66;4957921;28;20031;-66
2022/08/04 03:38:26;;;;;;;5.55;2.30;;;20.50;62.80;;;19.72;71.38;95933.94;4953469;28;20049;-67
2022/08/04 03:41:20;;;;;;;4.15;2.20;;;20.40;63.10;;;19.67;71.83;95920.50;4945797;28;20058;-66
2022/08/04 03:44:31;;;;;;;2.97;2.08;;;20.40;63.20;;;19.63;71.42;95924.72;4961220;28;20667;-66
2022/08/04 03:47:11;;;;;;;6.85;2.33;;;20.40;63.50;;;19.61;70.70;95932.19;4959661;28;20533;-70
2022/08/04 03:49:44;;;;;;;2.25;1.80;;;20.40;63.50;;;19.60;71.21;95934.06;4944376;28;20043;-71
2022/08/04 03:53:10;;;;;;;4.00;2.13;;;20.40;63.60;;;19.61;72.87;95926.84;4946112;28;20042;-66
2022/08/04 03:56:08;;;;;;;4.88;2.08;;;20.40;63.80;;;19.56;71.29;95924.94;4949271;28;20040;-70
2022/08/04 03:59:02;;;;;;;3.55;2.10;;;20.30;63.80;;;19.54;72.55;95922.53;4957487;28;20119;-69
2022/08/04 04:02:05;;;;;;;3.65;2.25;;;20.30;63.60;;;19.52;72.53;95924.59;4929868;29;20656;-69
2022/08/04 04:04:58;;;;;;;2.97;2.00;;;20.20;63.80;;;19.47;72.55;95921.88;4949897;28;20082;-71
2022/08/04 04:07:45;;;;;;;2.80;2.08;;;20.20;64.10;;;19.46;73.06;95922.94;4939820;28;20086;-67
2022/08/04 04:10:10;;;;;;;4.18;2.30;;;20.20;64.30;;;19.45;71.34;95923.97;4962974;28;20150;-66
2022/08/04 04:13:11;;;;;;;3.08;2.55;;;20.20;64.40;;;19.48;73.32;95930.69;4964899;28;20105;-67
2022/08/04 04:15:42;;;;;;;3.33;2.00;;;20.30;64.60;;;19.47;72.44;95940.56;4957452;28;20035;-66
2022/08/04 04:18:41;;;;;;;4.35;2.45;;;20.30;64.40;;;19.50;73.58;95941.91;4953014;28;21216;-67
2022/08/04 04:21:47;;;;;;;3.90;2.45;;;20.30;64.00;;;19.45;73.04;95939.97;4964764;28;20040;-66
2022/08/04 04:24:32;;;;;;;10.73;8.95;;;20.30;64.20;;;19.41;72.84;95944.19;4966627;28;20031;-67
2022/08/04 04:27:41;;;;;;;9.75;8.55;;;20.20;64.20;;;19.42;73.02;95939.66;4952556;28;20035;-67
2022/08/04 04:30:24;;;;;;;4.15;3.03;;;20.30;64.60;;;19.40;74.16;95937.25;4966920;28;20423;-66
2022/08/04 04:33:23;;;;;;;4.28;2.42;;;20.20;64.70;;;19.39;73.50;95940.97;4946620;28;20027;-66
2022/08/04 04:36:20;;;;;;;4.00;2.70;;;20.10;65.00;;;19.36;74.10;95936.13;4949126;28;20066;-66
2022/08/04 04:39:44;;;;;;;5.13;2.88;;;20.20;65.10;;;19.35;74.49;95944.38;4944552;28;20507;-66
2022/08/04 04:42:34;;;;;;;4.78;2.70;;;20.20;65.40;;;19.33;75.27;95952.63;4951001;28;21291;-67
2022/08/04 04:45:23;;;;;;;7.80;3.20;;;20.10;65.50;;;19.34;75.13;95954.25;4949343;28;20031;-66
2022/08/04 04:47:54;;;;;;;4.57;3.13;;;20.10;65.60;;;19.35;74.75;95955.06;4948676;28;20042;-67
2022/08/04 04:50:36;;;;;;;6.82;2.75;;;20.20;65.80;;;19.36;75.65;95960.13;4966223;28;20027;-66
2022/08/04 04:53:23;;;;;;;4.65;2.83;;;20.20;65.70;;;19.37;76.04;95964.41;4964158;28;20042;-67
2022/08/04 04:56:13;;;;;;;7.20;3.20;;;20.30;65.90;;;19.38;76.60;95960.69;4929887;29;20046;-69
2022/08/04 04:58:39;;;;;;;6.30;2.80;;;20.30;66.30;;;19.38;74.65;95959.91;4942580;28;20039;-66
2022/08/04 05:01:13;;;;;;;3.97;3.10;;;20.30;66.40;;;19.43;76.28;95963.41;4908145;28;20032;-69
2022/08/04 05:04:00;;;;;;;7.72;3.30;;;20.40;66.20;;;19.46;75.68;95952.28;4958253;28;20698;-68
2022/08/04 05:06:49;;;;;;;7.03;3.45;;;20.50;65.40;;;19.52;76.49;95961.16;4960051;28;20032;-68
2022/08/04 05:09:55;;;;;;;8.00;3.70;;;20.60;65.70;;;19.57;77.34;95964.72;4960886;28;20035;-65
2022/08/04 05:13:03;;;;;;;11.13;3.78;;;20.60;65.70;;;19.67;76.40;95963.22;4948758;28;20037;-59
2022/08/04 05:15:33;;;;;;;7.75;3.40;;;20.70;65.40;;;19.71;75.86;95959.00;4946796;28;20767;-71
2022/08/04 05:17:59;;;;;;;12.90;4.60;;;20.80;65.00;;;19.77;74.88;95963.34;4901106;29;20087;-72
2022/08/04 05:20:33;;;;;;;16.85;4.55;;;20.80;64.70;;;19.82;75.76;95964.19;4917838;29;20031;-67
2022/08/04 05:23:01;;;;;;;8.82;4.10;;;20.90;65.20;;;19.87;75.31;95963.44;4934994;28;20114;-70
2022/08/04 05:25:58;;;;;;;8.90;4.63;;;21.00;65.00;;;19.94;76.64;95960.59;4933105;28;20031;-69
2022/08/04 05:28:38;;;;;;;18.27;5.32;;;21.00;65.10;;;20.01;75.56;95959.31;4962916;28;20027;-72
2022/08/04 05:31:25;;;;;;;36.47;23.92;;;21.10;64.80;;;20.13;76.47;95959.97;4903260;28;20040;-70
2022/08/04 05:34:16;;;;;;;14.07;6.88;;;21.30;64.40;;;20.23;75.25;95951.25;4932892;28;20058;-70
2022/08/04 05:36:46;;;;;;;18.27;7.15;;;21.40;64.10;;;20.32;75.44;95954.25;4922120;29;20125;-69
2022/08/04 05:39:18;;;;;;;31.13;8.98;;;21.50;63.70;;;20.42;75.59;95963.22;4918125;28;20553;-70
2022/08/04 05:41:43;;;;;;;26.08;7.70;;;21.70;63.60;;;20.52;74.26;95951.00;4919386;28;20047;-70
2022/08/04 05:44:09;;;;;;;22.40;7.60;;;21.70;63.00;;;20.60;73.90;95951.34;4947262;28;20099;-69
2022/08/04 05:46:35;;;;;;;16.95;5.25;;;21.80;62.60;;;20.69;73.60;95949.81;4934443;28;20054;-71
2022/08/04 05:49:02;;;;;;;8.90;4.40;;;22.00;62.70;;;20.78;73.39;95948.25;4946104;28;20039;-71
2022/08/04 05:51:29;;;;;;;11.98;3.97;;;22.10;62.10;;;20.91;73.66;95951.56;4917498;28;20082;-68
2022/08/04 05:53:55;;;;;;;11.85;4.03;;;22.30;61.80;;;21.02;72.62;95956.69;4951908;28;20115;-68
2022/08/04 05:56:21;;;;;;;8.88;3.60;;;22.40;60.70;;;21.14;72.24;95961.06;4933072;28;20043;-69
2022/08/04 05:58:47;;;;;;;11.98;3.75;;;22.60;60.50;;;21.26;72.52;95954.47;4949108;28;20042;-69
2022/08/04 06:01:12;;;;;;;8.90;3.55;;;22.70;60.30;;;21.42;71.75;95957.22;4914923;29;20028;-69
2022/08/04 06:03:38;;;;;;;7.38;3.22;;;23.00;59.70;;;21.56;71.45;95944.97;4929913;28;20126;-70
2022/08/04 06:06:04;;;;;;;7.15;3.95;;;23.20;59.30;;;21.70;71.51;95951.44;4918087;28;20035;-69
2022/08/04 06:08:30;;;;;;;11.88;3.88;;;23.40;58.70;;;21.84;70.86;95949.91;4920145;29;20039;-71
2022/08/04 06:10:57;;;;;;;7.40;3.70;;;23.50;58.30;;;21.96;70.28;95947.00;4948316;28;20031;-67
2022/08/04 06:13:29;;;;;;;7.85;3.78;;;23.60;58.10;;;22.12;70.20;95945.16;4932474;28;20499;-69
2022/08/04 06:15:55;;;;;;;9.55;3.00;;;23.80;57.80;;;22.25;69.84;95947.34;4945453;28;20063;-68
2022/08/04 06:18:21;;;;;;;7.03;3.42;;;24.00;57.50;;;22.37;69.45;95947.88;4948962;28;20511;-72
2022/08/04 06:20:47;;;;;;;6.97;3.22;;;24.10;56.50;;;22.51;69.01;95948.16;4951055;28;20146;-69
2022/08/04 06:23:14;;;;;;;5.20;3.38;;;24.30;56.40;;;22.67;68.25;95951.66;4948382;28;20050;-68
2022/08/04 06:25:51;;;;;;;5.35;3.00;;;24.40;55.90;;;22.83;67.67;95951.38;4901812;28;20411;-69
2022/08/04 06:28:17;;;;;;;5.97;3.00;;;24.60;56.00;;;23.00;67.97;95951.09;4947474;28;20042;-72
2022/08/04 06:30:46;;;;;;;8.23;2.88;;;24.70;55.80;;;23.17;66.86;95956.16;4923306;28;20035;-68
2022/08/04 06:33:23;;;;;;;8.38;3.03;;;24.90;54.70;;;23.37;66.79;95949.94;4919415;28;20050;-70
2022/08/04 06:35:54;;;;;;;4.70;2.60;;;25.10;55.00;;;23.53;65.51;95948.78;4916529;28;20118;-70
2022/08/04 06:38:24;;;;;;;7.38;2.63;;;25.20;54.50;;;23.69;65.14;95953.06;4946844;28;20387;-71
2022/08/04 06:40:50;;;;;;;4.47;2.70;;;25.40;53.80;;;23.83;64.77;95951.41;4950491;28;20031;-68
2022/08/04 06:43:15;;;;;;;3.10;2.20;;;25.60;53.40;;;23.96;63.77;95947.28;4947777;28;20034;-66
2022/08/04 06:45:41;;;;;;;6.70;2.75;;;25.60;53.00;;;24.09;63.94;95946.69;4964283;28;20039;-69
2022/08/04 06:48:07;;;;;;;5.95;2.70;;;25.80;53.10;;;24.24;63.65;95947.69;4947480;28;20046;-70
2022/08/04 06:50:36;;;;;;;5.40;2.67;;;26.00;52.50;;;24.36;62.95;95945.47;4919854;28;20051;-70
2022/08/04 06:53:02;;;;;;;10.30;2.80;;;26.10;52.30;;;24.47;62.83;95941.63;4960160;28;20039;-71
2022/08/04 06:55:28;;;;;;;7.22;2.67;;;26.20;52.20;;;24.59;63.13;95944.75;4948027;28;20039;-72
2022/08/04 06:57:53;;;;;;;8.63;2.58;;;26.40;52.20;;;24.71;62.39;95947.09;4964383;28;20035;-70
2022/08/04 07:00:19;;;;;;;7.43;2.47;;;26.50;51.70;;;24.84;62.17;95951.78;4949011;28;20069;-72
2022/08/04 07:02:50;;;;;;;10.40;3.20;;;26.60;51.30;;;24.96;61.70;95954.94;4947418;28;20066;-67
2022/08/04 07:05:16;;;;;;;7.30;2.95;;;26.80;51.20;;;25.08;61.47;95949.19;4930518;28;20436;-71
2022/08/04 07:07:42;;;;;;;6.93;2.60;;;26.90;51.10;;;25.21;60.80;95951.22;4947632;28;20130;-70
2022/08/04 07:10:08;;;;;;;7.03;2.67;;;27.10;49.70;;;25.35;60.92;95948.66;4946568;28;20049;-68
2022/08/04 07:12:34;;;;;;;7.43;2.92;;;27.30;49.80;;;25.48;59.67;95950.63;4932473;29;20039;-62
2022/08/04 07:14:59;;;;;;;5.50;2.60;;;27.40;48.70;;;25.60;59.52;95951.03;4945872;28;20125;-70
2022/08/04 07:17:25;;;;;;;6.55;2.33;;;27.50;49.00;;;25.72;58.65;95949.84;4947808;28;20098;-71
2022/08/04 07:19:54;;;;;;;5.63;2.20;;;27.60;48.40;;;25.87;58.33;95957.75;4945309;28;20028;-67
2022/08/04 07:22:20;;;;;;;5.65;2.53;;;27.80;47.70;;;25.98;57.62;95958.41;4950178;28;20035;-68
2022/08/04 07:24:45;;;;;;;4.57;2.05;;;28.00;46.90;;;26.13;56.86;95960.91;4915898;29;20082;-70
2022/08/04 07:27:11;;;;;;;7.88;2.20;;;28.20;45.80;;;26.29;56.20;95954.22;4943724;28;20760;-68
2022/08/04 07:29:37;;;;;;;9.20;2.95;;;28.30;45.90;;;26.45;55.33;95958.28;4931867;28;20046;-68
2022/08/04 07:32:04;;;;;;;7.88;2.50;;;28.50;45.20;;;26.55;55.87;95958.16;4946184;28;20058;-69
2022/08/04 07:34:30;;;;;;;6.82;2.17;;;28.60;46.20;;;26.70;55.36;95948.97;4932501;28;20039;-61
2022/08/04 07:36:58;;;;;;;6.00;2.28;;;28.90;45.20;;;26.90;54.76;95952.44;4948009;28;20039;-70
2022/08/04 07:39:27;;;;;;;6.65;1.85;;;29.10;44.70;;;27.07;53.84;95947.31;4946241;28;20047;-72
2022/08/04 07:41:53;;;;;;;6.72;1.90;;;29.30;43.80;;;27.24;53.62;95950.25;4947249;28;20102;-73
2022/08/04 07:44:18;;;;;;;11.55;2.33;;;29.60;43.70;;;27.40;53.11;95956.97;4948581;28;20034;-71
2022/08/04 07:46:45;;;;;;;5.82;2.10;;;29.70;42.40;;;27.57;53.42;95952.84;4945196;28;20067;-69
2022/08/04 07:49:11;;;;;;;10.32;2.45;;;30.00;44.00;;;27.74;52.61;95947.69;4957677;28;20495;-71
2022/08/04 07:51:37;;;;;;;11.27;2.22;;;30.10;42.20;;;27.91;52.37;95953.28;4918661;28;20043;-71
2022/08/04 07:54:04;;;;;;;6.63;1.90;;;30.40;41.90;;;28.15;51.71;95950.31;4934674;28;20356;-71
2022/08/04 07:56:32;;;;;;;3.65;2.10;;;30.70;41.60;;;28.35;51.69;95943.69;4935602;29;20062;-71
2022/08/04 07:58:59;;;;;;;7.78;2.10;;;30.90;41.70;;;28.56;50.66;95944.81;4950818;28;20452;-72
2022/08/04 08:01:25;;;;;;;5.00;2.05;;;31.20;39.60;;;28.75;49.90;95941.13;4950822;28;20027;-74
2022/08/04 08:03:53;;;;;;;10.00;2.10;;;31.30;39.70;;;28.92;48.25;95935.81;4922732;28;20102;-74
2022/08/04 08:06:18;;;;;;;16.63;2.22;;;31.50;38.20;;;29.13;48.46;95936.09;4951348;28;20570;-72
2022/08/04 08:08:44;;;;;;;9.98;1.90;;;31.80;39.10;;;29.34;48.30;95933.66;4967894;28;20086;-73
2022/08/04 08:11:10;;;;;;;6.13;2.20;;;32.10;39.00;;;29.61;48.41;95935.38;4935825;28;20114;-72
2022/08/04 08:13:36;;;;;;;7.63;1.58;;;32.50;38.40;;;29.81;47.17;95941.00;4918508;28;20027;-68
2022/08/04 08:16:01;;;;;;;4.57;1.80;;;32.50;37.40;;;30.00;46.51;95948.06;4951239;28;20035;-68
2022/08/04 08:18:28;;;;;;;7.70;1.80;;;32.70;36.90;;;30.22;46.43;95939.03;4934383;29;20039;-62
2022/08/04 08:20:54;;;;;;;8.95;1.85;;;33.00;37.20;;;30.46;46.02;95945.59;4967238;28;20039;-62
2022/08/04 08:23:19;;;;;;;10.65;1.70;;;33.30;37.00;;;30.67;44.98;95934.09;4919447;29;20098;-68
2022/08/04 08:25:45;;;;;;;5.45;1.80;;;33.50;35.60;;;30.90;45.31;95942.84;4932668;28;20310;-70
2022/08/04 08:28:11;;;;;;;2.95;1.70;;;33.80;36.50;;;31.07;44.16;95934.66;4965720;28;20043;-68
2022/08/04 08:30:37;;;;;;;4.88;1.52;;;34.00;34.70;;;31.25;43.45;95938.16;4935155;28;20038;-68
2022/08/04 08:33:05;;;;;;;9.63;2.25;;;34.20;34.70;;;31.49;42.65;95938.41;4946787;28;20101;-69
2022/08/04 08:36:02;;;;;;;3.50;1.65;;;34.60;34.30;;;31.64;41.33;95932.38;4934073;28;20126;-66
2022/08/04 08:38:44;;;;;;;7.13;1.90;;;34.60;33.60;;;31.88;40.42;95934.53;4962359;28;20408;-71
2022/08/04 08:41:50;;;;;;;3.45;1.73;;;34.90;33.50;;;32.10;40.37;95936.16;4950387;28;20039;-66
2022/08/04 08:44:34;;;;;;;5.78;1.70;;;35.20;33.70;;;32.35;40.92;95939.03;4962056;28;20050;-65
2022/08/04 08:47:39;;;;;;;6.00;2.00;;;35.50;33.70;;;32.61;39.87;95939.63;4968696;28;20103;-66
2022/08/04 08:50:24;;;;;;;11.55;2.05;;;35.80;32.70;;;32.82;41.21;95940.44;4937164;28;20054;-70
2022/08/04 08:53:03;;;;;;;3.88;1.60;;;36.10;34.40;;;33.03;39.80;95934.13;4932897;28;20136;-67
2022/08/04 08:55:41;;;;;;;8.65;2.10;;;36.30;32.40;;;33.24;37.87;95929.38;4963928;28;20050;-65
2022/08/04 08:58:31;;;;;;;4.22;1.60;;;36.40;30.90;;;33.41;39.96;95929.22;4965848;28;20038;-63
2022/08/04 09:01:44;;;;;;;2.35;1.55;;;36.70;32.80;;;33.70;38.95;95935.59;4968009;28;20039;-68
2022/08/04 09:04:25;;;;;;;8.00;2.00;;;36.90;31.20;;;33.96;38.34;95933.34;4948607;28;20503;-65
2022/08/04 09:07:09;;;;;;;13.65;1.75;;;37.30;31.40;;;34.19;37.49;95928.19;4951164;28;20039;-66
2022/08/04 09:10:12;;;;;;;4.40;1.60;;;37.50;30.90;;;34.44;37.44;95928.94;4966127;28;20334;-72
2022/08/04 09:12:51;;;;;;;2.55;1.65;;;37.70;30.70;;;34.70;36.90;95934.75;4951657;28;20027;-65
2022/08/04 09:15:23;;;;;;;8.50;1.80;;;37.90;30.20;;;34.90;36.69;95932.22;4947948;28;20607;-70
2022/08/04 09:18:02;;;;;;;2.60;1.15;;;38.10;30.60;;;35.15;36.14;95930.13;4946347;28;20035;-62
2022/08/04 09:20:46;;;;;;;6.70;1.60;;;38.50;29.50;;;35.43;36.42;95924.63;4964506;28;20042;-68
2022/08/04 09:23:34;;;;;;;3.67;1.58;;;38.80;30.00;;;35.72;35.89;95921.41;4946982;28;20027;-72
2022/08/04 09:26:10;;;;;;;3.58;1.60;;;39.10;29.10;;;36.03;34.73;95922.53;4961616;28;20031;-68
2022/08/04 09:29:19;;;;;;;3.90;1.63;;;39.30;28.40;;;36.32;33.66;95930.25;4949143;28;20023;-70
2022/08/04 09:32:03;;;;;;;;;;;39.60;28.20;;;36.59;33.46;95927.66;4944646;28;20035;-69
2022/08/04 09:34:53;;;;;;;2.72;1.65;;;39.90;27.00;;;36.85;32.45;95919.59;4947786;28;19926;-62
2022/08/04 09:37:32;;;;;;;3.22;1.33;;;40.00;26.70;;;37.09;31.92;95912.97;4965743;28;20047;-68
2022/08/04 09:40:20;;;;;;;6.27;1.50;;;40.30;25.80;;;37.32;31.60;95916.56;4945150;28;20036;-64
2022/08/04 09:42:55;;;;;;;7.13;1.55;;;40.50;26.60;;;37.56;31.35;95926.38;4930019;28;20369;-69
2022/08/04 09:45:32;;;;;;;4.95;1.67;;;40.80;25.30;;;37.72;30.91;95917.22;4964152;28;20148;-64
2022/08/04 09:48:07;;;;;;;5.78;1.70;;;40.90;25.70;;;37.89;30.53;95922.22;4948831;28;20088;-69
2022/08/04 09:50:40;;;;;;;5.20;1.55;;;41.00;25.70;;;38.08;30.86;95913.88;4918857;28;20075;-65
2022/08/04 09:53:43;;;;;;;5.40;1.30;;;41.40;26.10;;;38.32;29.93;95909.09;4949068;28;20667;-68
2022/08/04 09:56:29;;;;;;;2.28;1.60;;;41.60;24.60;;;38.47;29.40;95911.63;4960932;28;20055;-70
2022/08/04 09:59:48;;;;;;;3.50;1.20;;;42.00;24.10;;;38.67;28.83;95903.25;4959804;28;20031;-69
2022/08/04 10:02:14;;;;;;;;;;;42.30;24.10;;;38.84;29.14;95908.97;4956284;28;20031;-68
2022/08/04 10:04:41;;;;;;;2.63;1.40;;;42.60;23.70;;;39.01;31.12;95901.28;4945891;28;19970;-69
2022/08/04 10:07:31;;;;;;;3.30;1.10;;;43.00;23.80;;;39.22;28.39;95897.97;4934167;29;20027;-68
2022/08/04 10:10:25;;;;;;;3.05;1.38;;;43.30;22.60;;;39.39;27.06;95909.16;4945443;28;20465;-68
2022/08/04 10:12:54;;;;;;;4.15;1.50;;;43.70;21.30;;;39.65;27.82;95902.72;4949127;28;20126;-68
2022/08/04 10:15:44;;;;;;;2.83;1.40;;;44.20;21.40;;;40.08;26.56;95895.53;4949239;28;20070;-68
2022/08/04 10:18:21;;;;;;;1.77;1.10;;;44.60;21.10;;;40.44;26.64;95895.72;4946707;28;20042;-68
2022/08/04 10:20:52;;;;;;;8.00;1.67;;;44.90;21.00;;;40.75;25.58;95899.81;4949580;28;20032;-70
2022/08/04 10:23:53;;;;;;;2.58;1.10;;;45.30;20.00;;;41.10;25.02;95887.28;4949085;28;20042;-69
2022/08/04 10:26:40;;;;;;;3.15;1.58;;;45.90;19.60;;;41.46;25.47;95893.66;4961474;28;20035;-69
2022/08/04 10:29:23;;;;;;;6.25;1.65;;;46.50;19.10;;;41.82;24.11;95892.47;4948502;28;20054;-69
2022/08/04 10:32:08;;;;;;;2.53;1.40;;;47.10;18.30;;;42.25;23.38;95884.09;4932502;28;20035;-69
2022/08/04 10:35:12;;;;;;;8.23;1.70;;;47.40;18.10;;;42.68;23.41;95876.44;4947243;28;20035;-69
2022/08/04 10:38:12;;;;;;;3.15;1.38;;;48.00;18.10;;;43.07;23.38;95873.47;4947992;28;20048;-66
2022/08/04 10:41:04;;;;;;;3.35;1.58;;;48.50;18.10;;;43.33;23.72;95880.44;4964094;28;20042;-71
2022/08/04 10:44:09;;;;;;;2.03;1.20;;;48.70;18.40;;;43.76;23.06;95877.31;4948876;28;20483;-71
2022/08/04 10:46:38;;;;;;;2.25;1.35;;;49.00;18.00;;;43.91;23.27;95875.19;4961401;28;20037;-71
2022/08/04 10:49:12;;;;;;;5.63;1.50;;;49.40;17.00;;;44.07;22.75;95875.41;4962450;28;20035;-71
2022/08/04 10:52:02;;;;;;;1.98;1.23;;;49.60;17.60;;;44.41;22.14;95863.59;4963350;28;20094;-71
2022/08/04 10:55:18;;;;;;;4.45;1.38;;;49.60;17.20;;;44.70;21.95;95867.56;4948432;28;20118;-70
2022/08/04 10:57:51;;;;;;;3.40;1.20;;;50.00;17.50;;;44.97;22.06;95864.06;4960808;28;20043;-70
2022/08/04 11:00:27;;;;;;;2.38;1.42;;;50.20;17.40;;;45.21;20.91;95865.66;4946999;28;20376;-69
2022/08/04 11:03:19;;;;;;;2.30;1.10;;;50.40;16.40;;;45.44;20.68;95862.94;4948117;28;20031;-68
2022/08/04 11:05:57;;;;;;;1.83;1.13;;;50.50;16.40;;;45.72;20.08;95855.34;4961110;28;20051;-72
2022/08/04 11:08:33;;;;;;;1.88;1.30;;;50.10;15.80;;;45.83;20.27;95855.94;4947587;28;20046;-70